Hornbeck, Louisiana
Current Conditions -  °F | °C
As of 11:56 AM on Saturday 20 Dec 2014 (Local Time) from KAQV Reporting Station
Overcast Overcast  
Wind Chill: 50°   Ceiling: 1100
Heat Index: 50°   Visibility: 10mi
Dew Point: 44°   Wind: 7mph
Humidity: 80%   Direction: 30°NNE
Pressure: 30.19"   Gusts: NA
Location:  31.33°N, 93.4°W
Report Text: KAQV 201756Z AUTO 03006KT 10SM OVC011 10/07 A3019 RMK AO2 CIG 009V014 SLP226 6//// T01000067 10106 20083 58002
Loading
Personal Weather Stations






























Interactive Weather Map New forecast layout! Learn more

10-Day Weather Forecast

Advertisements
Track Severe Weather on mobile